Atlas — SV6729 — position and weather

sailwx.info

Track history (hours):
 
Tides and Currents Weather Stations Pressure Air Temp Water Temp Dewpoint Dewpoint Depression Visibility Wind Speed Wind Dir Waves Ship Positions

Atlas

Last reported at 2017-Jun-22 11:09 UTC. Time now 2017-Jun-23 08:51 UTC.
Position N 37°57' E 023°37'.

Length 29 m; draft 5 m.

Type: Tug. MMSI: 239611000.

Date/timePositionNaut miles runAvg speedWind from/ knotsBaromVisibWave heightAir tempDewpointWater temp
2017-Jun-22 11:09N 37°57' E 023°37'0 1.6
2017-Jun-22 11:01N 37°57' E 023°36'0 0.4
2017-Jun-22 10:31N 37°57' E 023°37'0 0.0
2017-Jun-22 10:00N 37°57' E 023°37'0 0.0
2017-Jun-22 09:31N 37°57' E 023°37'0 0.0
2017-Jun-22 09:00N 37°57' E 023°37'0 0.0
2017-Jun-22 08:30N 37°57' E 023°37'0 0.0
2017-Jun-22 08:00N 37°57' E 023°37'0 0.0
2017-Jun-22 07:30N 37°57' E 023°37'0 0.0
2017-Jun-22 07:00N 37°57' E 023°37'0 0.0
2017-Jun-22 06:31N 37°57' E 023°37'1 2.9
2017-Jun-22 06:00N 37°57' E 023°35'1 2.9
2017-Jun-22 05:30N 37°57' E 023°37'1 1.9
2017-Jun-22 05:00N 37°57' E 023°35'0 0.4
2017-Jun-22 04:30N 37°57' E 023°35'1 1.2
2017-Jun-22 04:00N 37°57' E 023°36'0 0.8
2017-Jun-22 03:30N 37°57' E 023°37'0 0.0
2017-Jun-22 03:00N 37°57' E 023°37'0 0.0
2017-Jun-21 16:49N 37°57' E 023°37'0 0.0
2017-Jun-21 16:30N 37°57' E 023°37'0 0.7
2017-Jun-21 16:00N 37°57' E 023°36'2 3.8
2017-Jun-21 15:30N 37°56' E 023°38'0 0.0
2017-Jun-21 15:00N 37°56' E 023°38'2 3.9
2017-Jun-21 14:30N 37°57' E 023°36'1 0.6
2017-Jun-21 13:30N 37°57' E 023°37'0 0.0
2017-Jun-21 13:00N 37°57' E 023°37'0 0.0
2017-Jun-21 12:30N 37°57' E 023°37'0 0.0
2017-Jun-21 12:00N 37°57' E 023°37'0 0.0
2017-Jun-21 11:30N 37°57' E 023°37'0 0.0
2017-Jun-21 11:00N 37°57' E 023°37'0 0.0
2017-Jun-21 10:30N 37°57' E 023°37'0 0.0
2017-Jun-21 10:00N 37°57' E 023°37'1 1.2
2017-Jun-21 09:30N 37°57' E 023°36'1 1.2
2017-Jun-21 09:00N 37°57' E 023°37'0 0.0
2017-Jun-21 08:30N 37°57' E 023°37'0 0.0
2017-Jun-21 08:00N 37°57' E 023°37'0 0.0
2017-Jun-21 07:30N 37°57' E 023°37'0 0.0
2017-Jun-21 07:00N 37°57' E 023°37'0 0.0
2017-Jun-21 06:30N 37°57' E 023°37'0 0.0
2017-Jun-21 06:00N 37°57' E 023°37'0 0.0
2017-Jun-21 05:30N 37°57' E 023°37'1 1.4
2017-Jun-21 05:00N 37°57' E 023°36'1 1.4
2017-Jun-21 04:30N 37°57' E 023°37'0 0.1
2017-Jun-21 04:00N 37°57' E 023°37'0 0.0
2017-Jun-21 03:30N 37°57' E 023°37'0 0.0
2017-Jun-21 03:00N 37°57' E 023°37'0 0.0
2017-Jun-20 09:12N 37°57' E 023°37'0 0.0
2017-Jun-20 09:00N 37°57' E 023°37'1 3.0
2017-Jun-20 08:30N 37°58' E 023°35'1 1.1
2017-Jun-20 08:00N 37°57' E 023°35'1 2.3
2017-Jun-20 07:27N 37°57' E 023°37'0 0.4
2017-Jun-20 06:43N 37°57' E 023°36'1 3.6
2017-Jun-20 06:30N 37°57' E 023°35'0 1.0
2017-Jun-20 06:00N 37°57' E 023°35'1 2.0
2017-Jun-20 05:27N 37°57' E 023°37'0 0.0
2017-Jun-20 05:00N 37°57' E 023°37'0 0.1
2017-Jun-20 04:29N 37°57' E 023°37'0 0.1
2017-Jun-20 04:00N 37°57' E 023°37'0 0.0
2017-Jun-20 03:28N 37°57' E 023°37'0 0.0
2017-Jun-20 03:00N 37°57' E 023°37'0 0.0
2017-Jun-19 10:53N 37°57' E 023°37'2 6.6
2017-Jun-19 10:30N 37°57' E 023°33'5 9.7
2017-Jun-19 10:00N 38°02' E 023°30'0 0.5
2017-Jun-19 09:30N 38°02' E 023°30'0 0.4
2017-Jun-19 09:00N 38°02' E 023°30'0 0.5
2017-Jun-19 08:30N 38°02' E 023°30'0 0.0
2017-Jun-19 08:00N 38°02' E 023°30'0 0.3
2017-Jun-19 07:30N 38°02' E 023°30'1 2.0
2017-Jun-19 07:00N 38°01' E 023°31'1 1.0
2017-Jun-19 06:31N 38°01' E 023°32'1 1.2
2017-Jun-19 06:00N 38°02' E 023°32'3 6.6
2017-Jun-19 05:30N 37°59' E 023°33'2 4.3
2017-Jun-19 05:00N 37°57' E 023°35'0 0.7
2017-Jun-19 04:30N 37°57' E 023°35'1 1.2
2017-Jun-19 04:00N 37°57' E 023°36'1 1.0
2017-Jun-19 03:30N 37°57' E 023°36'0 1.0
2017-Jun-19 03:00N 37°57' E 023°37'0 0.0
2017-Jun-18 18:59N 37°57' E 023°37'1 1.3
2017-Jun-18 18:30N 37°57' E 023°36'1 2.5
2017-Jun-18 18:00N 37°56' E 023°36'1 2.8
2017-Jun-18 17:30N 37°57' E 023°37'0 0.0
2017-Jun-18 17:00N 37°57' E 023°37'0 0.0
2017-Jun-18 16:30N 37°57' E 023°37'0 0.0
2017-Jun-18 16:00N 37°57' E 023°37'0 0.0
2017-Jun-18 15:30N 37°57' E 023°37'0 0.0
2017-Jun-18 15:00N 37°57' E 023°37'0 0.0
2017-Jun-18 14:30N 37°57' E 023°37'0 0.0
2017-Jun-18 14:00N 37°57' E 023°37'0 0.0
2017-Jun-18 13:30N 37°57' E 023°37'0 0.0
2017-Jun-18 13:00N 37°57' E 023°37'0 0.0
2017-Jun-18 12:30N 37°57' E 023°37'1 1.1
2017-Jun-18 12:00N 37°57' E 023°36'0 0.9
2017-Jun-18 11:30N 37°58' E 023°36'0 0.4
2017-Jun-18 11:00N 37°57' E 023°36'0 0.2
2017-Jun-18 10:30N 37°57' E 023°37'0 0.0
2017-Jun-18 10:00N 37°57' E 023°37'1 2.8
2017-Jun-18 09:30N 37°57' E 023°35'2 4.1
2017-Jun-18 09:00N 37°58' E 023°33'1 1.9
2017-Jun-18 08:30N 37°58' E 023°33'3 5.3
2017-Jun-18 08:00N 37°57' E 023°37'0 0.0
2017-Jun-18 07:30N 37°57' E 023°37'0 0.0
2017-Jun-18 07:00N 37°57' E 023°37'0 0.0
2017-Jun-18 06:30N 37°57' E 023°37'0 0.6
2017-Jun-18 06:00N 37°57' E 023°36'1 2.7
2017-Jun-18 05:30N 37°56' E 023°35'1 2.2
2017-Jun-18 05:00N 37°57' E 023°36'0 0.6
2017-Jun-18 04:30N 37°57' E 023°36'0 0.9
2017-Jun-18 04:00N 37°57' E 023°37'0 0.0
2017-Jun-18 03:30N 37°57' E 023°37'0 0.0
2017-Jun-17 10:52N 37°57' E 023°37'0 0.0
2017-Jun-17 10:30N 37°57' E 023°37'0 0.0
2017-Jun-17 10:00N 37°57' E 023°37'1 2.9
2017-Jun-17 09:30N 37°57' E 023°35'0 0.5
2017-Jun-17 09:00N 37°57' E 023°35'1 1.0
2017-Jun-17 08:30N 37°58' E 023°34'0 0.0
2017-Jun-17 08:00N 37°58' E 023°34'0 0.0
2017-Jun-17 07:30N 37°58' E 023°34'0 0.0
2017-Jun-17 07:00N 37°58' E 023°34'1 1.3
2017-Jun-17 06:31N 37°57' E 023°34'1 2.4
2017-Jun-17 06:00N 37°57' E 023°35'0 0.9
2017-Jun-17 05:30N 37°57' E 023°36'0 0.0
2017-Jun-17 05:00N 37°57' E 023°36'0 0.8
2017-Jun-17 04:30N 37°57' E 023°36'2 3.4
2017-Jun-17 04:00N 37°56' E 023°38'1 2.4
2017-Jun-17 03:30N 37°56' E 023°37'1 0.1
2017-Jun-16 10:53N 37°57' E 023°37'0 0.0
2017-Jun-16 10:30N 37°57' E 023°37'1 1.2
2017-Jun-16 10:00N 37°57' E 023°36'1 1.2
2017-Jun-16 09:30N 37°57' E 023°37'0 0.0
2017-Jun-16 09:00N 37°57' E 023°37'0 0.0
2017-Jun-16 08:30N 37°57' E 023°37'0 0.0
2017-Jun-16 08:00N 37°57' E 023°37'0 0.0
2017-Jun-16 07:30N 37°57' E 023°37'0 0.9
2017-Jun-16 07:00N 37°57' E 023°36'0 0.3
2017-Jun-16 06:30N 37°57' E 023°36'1 1.1
2017-Jun-16 06:00N 37°57' E 023°37'0 0.0
2017-Jun-16 05:30N 37°57' E 023°37'0 0.0
2017-Jun-16 05:00N 37°57' E 023°37'0 0.0
2017-Jun-16 04:30N 37°57' E 023°37'0 0.9
2017-Jun-16 04:00N 37°57' E 023°36'0 0.9
2017-Jun-16 03:30N 37°57' E 023°37'0 0.0
2017-Jun-16 03:00N 37°57' E 023°37'0 0.0
2017-Jun-16 02:30N 37°57' E 023°37'0 0.0
2017-Jun-16 02:00N 37°57' E 023°37'0 0.0
2017-Jun-16 01:30N 37°57' E 023°37'0 0.0
2017-Jun-16 01:00N 37°57' E 023°37'0 0.0
2017-Jun-16 00:30N 37°57' E 023°37'0 0.0
2017-Jun-16 00:00N 37°57' E 023°37'0 0.1
2017-Jun-15 23:30N 37°57' E 023°36'1 1.6
2017-Jun-15 23:00N 37°57' E 023°36'0 0.1
2017-Jun-15 22:30N 37°57' E 023°36'0 0.7
2017-Jun-15 22:00N 37°57' E 023°35'0 0.8
2017-Jun-15 21:30N 37°57' E 023°35'1 2.5
2017-Jun-15 21:00N 37°57' E 023°37'0 0.0
2017-Jun-15 20:30N 37°57' E 023°37'0 0.0
2017-Jun-15 20:00N 37°57' E 023°37'0 0.0
2017-Jun-15 19:30N 37°57' E 023°37'0 0.0
2017-Jun-15 19:00N 37°57' E 023°37'0 0.0
2017-Jun-15 18:30N 37°57' E 023°37'0 0.0
2017-Jun-15 18:00N 37°57' E 023°37'0 0.0
2017-Jun-15 17:30N 37°57' E 023°37'0 0.0
2017-Jun-15 17:00N 37°57' E 023°37'0 0.0
2017-Jun-15 16:30N 37°57' E 023°37'0 0.6
2017-Jun-15 16:00N 37°57' E 023°36'0 0.4
2017-Jun-15 15:30N 37°57' E 023°36'1 1.4
2017-Jun-15 15:00N 37°57' E 023°36'1 0.8
2017-Jun-15 14:00N 37°57' E 023°37'0 0.1
2017-Jun-15 13:30N 37°57' E 023°37'0 0.1
2017-Jun-15 13:00N 37°57' E 023°37'0 0.0
2017-Jun-15 12:30N 37°57' E 023°37'0 0.0
2017-Jun-15 12:00N 37°57' E 023°37'0 0.0
2017-Jun-15 11:30N 37°57' E 023°37'0 0.1
2017-Jun-15 11:00N 37°57' E 023°37'0 0.1
2017-Jun-15 10:30N 37°57' E 023°37'0 0.0
2017-Jun-15 10:00N 37°57' E 023°37'1 1.1
2017-Jun-15 09:30N 37°57' E 023°37'0 0.0
2017-Jun-15 09:00N 37°57' E 023°37'0 0.0
2017-Jun-15 08:30N 37°57' E 023°37'1 2.0
2017-Jun-15 08:00N 37°57' E 023°36'0 0.8
2017-Jun-15 07:30N 37°57' E 023°36'0 1.0
2017-Jun-15 07:00N 37°56' E 023°36'1 2.0
2017-Jun-15 06:30N 37°57' E 023°36'1 1.1
2017-Jun-15 06:00N 37°57' E 023°36'0 0.2
2017-Jun-15 05:30N 37°57' E 023°36'0 0.6
2017-Jun-15 05:00N 37°57' E 023°36'0 0.6
2017-Jun-15 04:30N 37°57' E 023°36'0 0.2
2017-Jun-15 04:00N 37°57' E 023°36'1 1.5
2017-Jun-15 03:30N 37°57' E 023°37'0 0.1
2017-Jun-15 03:00N 37°57' E 023°37'0 0.0
2017-Jun-13 16:08N 37°57' E 023°37'0 1.9
2017-Jun-13 16:00N 37°57' E 023°36'4 7.3
2017-Jun-13 15:30N 37°60' E 023°33'2 4.4
2017-Jun-13 15:00N 38°02' E 023°32'0 0.0
2017-Jun-13 14:30N 38°02' E 023°32'0 0.0
2017-Jun-13 13:30N 38°02' E 023°32'0 0.0
2017-Jun-13 13:00N 38°02' E 023°32'0 0.0
2017-Jun-13 12:31N 38°02' E 023°32'0 0.0
2017-Jun-13 12:00N 38°02' E 023°32'0 0.0
2017-Jun-13 11:31N 38°02' E 023°32'0 0.0
2017-Jun-13 11:00N 38°02' E 023°32'2 3.7
2017-Jun-13 10:31N 38°02' E 023°30'0 0.7
2017-Jun-13 10:01N 38°02' E 023°30'0 0.0
2017-Jun-13 09:30N 38°02' E 023°30'0 0.0
2017-Jun-13 09:00N 38°02' E 023°30'0 0.3
2017-Jun-13 08:30N 38°02' E 023°30'0 0.0
2017-Jun-13 08:01N 38°02' E 023°30'0 0.0
2017-Jun-13 07:30N 38°02' E 023°30'0 0.0
2017-Jun-13 07:00N 38°02' E 023°30'0 0.0
2017-Jun-13 06:31N 38°02' E 023°30'2 5.0
2017-Jun-13 06:00N 38°00' E 023°32'4 8.1
2017-Jun-13 05:31N 37°57' E 023°35'1 1.1
2017-Jun-13 05:00N 37°57' E 023°36'0 0.6
2017-Jun-13 04:30N 37°57' E 023°36'0 0.6
2017-Jun-13 04:01N 37°57' E 023°35'1 1.7
2017-Jun-13 03:30N 37°57' E 023°36'0 0.7
2017-Jun-13 03:01N 37°57' E 023°37'  
Track history (hours):
 
Tides and Currents Weather Stations Pressure Air Temp Water Temp Dewpoint Dewpoint Depression Visibility Wind Speed Wind Dir Waves Ship Positions

Atlas

Last reported at 2017-Jun-22 11:09 UTC. Time now 2017-Jun-23 08:51 UTC.
Position N 37°57' E 023°37'.

Length 29 m; draft 5 m.

Type: Tug. MMSI: 239611000.

Date/timePositionNaut miles runAvg speedWind from/ knotsBaromVisibWave heightAir tempDewpointWater temp
2017-Jun-22 11:09N 37°57' E 023°37'0 1.6
2017-Jun-22 11:01N 37°57' E 023°36'0 0.4
2017-Jun-22 10:31N 37°57' E 023°37'0 0.0
2017-Jun-22 10:00N 37°57' E 023°37'0 0.0
2017-Jun-22 09:31N 37°57' E 023°37'0 0.0
2017-Jun-22 09:00N 37°57' E 023°37'0 0.0
2017-Jun-22 08:30N 37°57' E 023°37'0 0.0
2017-Jun-22 08:00N 37°57' E 023°37'0 0.0
2017-Jun-22 07:30N 37°57' E 023°37'0 0.0
2017-Jun-22 07:00N 37°57' E 023°37'0 0.0
2017-Jun-22 06:31N 37°57' E 023°37'1 2.9
2017-Jun-22 06:00N 37°57' E 023°35'1 2.9
2017-Jun-22 05:30N 37°57' E 023°37'1 1.9
2017-Jun-22 05:00N 37°57' E 023°35'0 0.4
2017-Jun-22 04:30N 37°57' E 023°35'1 1.2
2017-Jun-22 04:00N 37°57' E 023°36'0 0.8
2017-Jun-22 03:30N 37°57' E 023°37'0 0.0
2017-Jun-22 03:00N 37°57' E 023°37'0 0.0
2017-Jun-21 16:49N 37°57' E 023°37'0 0.0
2017-Jun-21 16:30N 37°57' E 023°37'0 0.7
2017-Jun-21 16:00N 37°57' E 023°36'2 3.8
2017-Jun-21 15:30N 37°56' E 023°38'0 0.0
2017-Jun-21 15:00N 37°56' E 023°38'2 3.9
2017-Jun-21 14:30N 37°57' E 023°36'1 0.6
2017-Jun-21 13:30N 37°57' E 023°37'0 0.0
2017-Jun-21 13:00N 37°57' E 023°37'0 0.0
2017-Jun-21 12:30N 37°57' E 023°37'0 0.0
2017-Jun-21 12:00N 37°57' E 023°37'0 0.0
2017-Jun-21 11:30N 37°57' E 023°37'0 0.0
2017-Jun-21 11:00N 37°57' E 023°37'0 0.0
2017-Jun-21 10:30N 37°57' E 023°37'0 0.0
2017-Jun-21 10:00N 37°57' E 023°37'1 1.2
2017-Jun-21 09:30N 37°57' E 023°36'1 1.2
2017-Jun-21 09:00N 37°57' E 023°37'0 0.0
2017-Jun-21 08:30N 37°57' E 023°37'0 0.0
2017-Jun-21 08:00N 37°57' E 023°37'0 0.0
2017-Jun-21 07:30N 37°57' E 023°37'0 0.0
2017-Jun-21 07:00N 37°57' E 023°37'0 0.0
2017-Jun-21 06:30N 37°57' E 023°37'0 0.0
2017-Jun-21 06:00N 37°57' E 023°37'0 0.0
2017-Jun-21 05:30N 37°57' E 023°37'1 1.4
2017-Jun-21 05:00N 37°57' E 023°36'1 1.4
2017-Jun-21 04:30N 37°57' E 023°37'0 0.1
2017-Jun-21 04:00N 37°57' E 023°37'0 0.0
2017-Jun-21 03:30N 37°57' E 023°37'0 0.0
2017-Jun-21 03:00N 37°57' E 023°37'0 0.0
2017-Jun-20 09:12N 37°57' E 023°37'0 0.0
2017-Jun-20 09:00N 37°57' E 023°37'1 3.0
2017-Jun-20 08:30N 37°58' E 023°35'1 1.1
2017-Jun-20 08:00N 37°57' E 023°35'1 2.3
2017-Jun-20 07:27N 37°57' E 023°37'0 0.4
2017-Jun-20 06:43N 37°57' E 023°36'1 3.6
2017-Jun-20 06:30N 37°57' E 023°35'0 1.0
2017-Jun-20 06:00N 37°57' E 023°35'1 2.0
2017-Jun-20 05:27N 37°57' E 023°37'0 0.0
2017-Jun-20 05:00N 37°57' E 023°37'0 0.1
2017-Jun-20 04:29N 37°57' E 023°37'0 0.1
2017-Jun-20 04:00N 37°57' E 023°37'0 0.0
2017-Jun-20 03:28N 37°57' E 023°37'0 0.0
2017-Jun-20 03:00N 37°57' E 023°37'0 0.0
2017-Jun-19 10:53N 37°57' E 023°37'2 6.6
2017-Jun-19 10:30N 37°57' E 023°33'5 9.7
2017-Jun-19 10:00N 38°02' E 023°30'0 0.5
2017-Jun-19 09:30N 38°02' E 023°30'0 0.4
2017-Jun-19 09:00N 38°02' E 023°30'0 0.5
2017-Jun-19 08:30N 38°02' E 023°30'0 0.0
2017-Jun-19 08:00N 38°02' E 023°30'0 0.3
2017-Jun-19 07:30N 38°02' E 023°30'1 2.0
2017-Jun-19 07:00N 38°01' E 023°31'1 1.0
2017-Jun-19 06:31N 38°01' E 023°32'1 1.2
2017-Jun-19 06:00N 38°02' E 023°32'3 6.6
2017-Jun-19 05:30N 37°59' E 023°33'2 4.3
2017-Jun-19 05:00N 37°57' E 023°35'0 0.7
2017-Jun-19 04:30N 37°57' E 023°35'1 1.2
2017-Jun-19 04:00N 37°57' E 023°36'1 1.0
2017-Jun-19 03:30N 37°57' E 023°36'0 1.0
2017-Jun-19 03:00N 37°57' E 023°37'0 0.0
2017-Jun-18 18:59N 37°57' E 023°37'1 1.3
2017-Jun-18 18:30N 37°57' E 023°36'1 2.5
2017-Jun-18 18:00N 37°56' E 023°36'1 2.8
2017-Jun-18 17:30N 37°57' E 023°37'0 0.0
2017-Jun-18 17:00N 37°57' E 023°37'0 0.0
2017-Jun-18 16:30N 37°57' E 023°37'0 0.0
2017-Jun-18 16:00N 37°57' E 023°37'0 0.0
2017-Jun-18 15:30N 37°57' E 023°37'0 0.0
2017-Jun-18 15:00N 37°57' E 023°37'0 0.0
2017-Jun-18 14:30N 37°57' E 023°37'0 0.0
2017-Jun-18 14:00N 37°57' E 023°37'0 0.0
2017-Jun-18 13:30N 37°57' E 023°37'0 0.0
2017-Jun-18 13:00N 37°57' E 023°37'0 0.0
2017-Jun-18 12:30N 37°57' E 023°37'1 1.1
2017-Jun-18 12:00N 37°57' E 023°36'0 0.9
2017-Jun-18 11:30N 37°58' E 023°36'0 0.4
2017-Jun-18 11:00N 37°57' E 023°36'0 0.2
2017-Jun-18 10:30N 37°57' E 023°37'0 0.0
2017-Jun-18 10:00N 37°57' E 023°37'1 2.8
2017-Jun-18 09:30N 37°57' E 023°35'2 4.1
2017-Jun-18 09:00N 37°58' E 023°33'1 1.9
2017-Jun-18 08:30N 37°58' E 023°33'3 5.3
2017-Jun-18 08:00N 37°57' E 023°37'0 0.0
2017-Jun-18 07:30N 37°57' E 023°37'0 0.0
2017-Jun-18 07:00N 37°57' E 023°37'0 0.0
2017-Jun-18 06:30N 37°57' E 023°37'0 0.6
2017-Jun-18 06:00N 37°57' E 023°36'1 2.7
2017-Jun-18 05:30N 37°56' E 023°35'1 2.2
2017-Jun-18 05:00N 37°57' E 023°36'0 0.6
2017-Jun-18 04:30N 37°57' E 023°36'0 0.9
2017-Jun-18 04:00N 37°57' E 023°37'0 0.0
2017-Jun-18 03:30N 37°57' E 023°37'0 0.0
2017-Jun-17 10:52N 37°57' E 023°37'0 0.0
2017-Jun-17 10:30N 37°57' E 023°37'0 0.0
2017-Jun-17 10:00N 37°57' E 023°37'1 2.9
2017-Jun-17 09:30N 37°57' E 023°35'0 0.5
2017-Jun-17 09:00N 37°57' E 023°35'1 1.0
2017-Jun-17 08:30N 37°58' E 023°34'0 0.0
2017-Jun-17 08:00N 37°58' E 023°34'0 0.0
2017-Jun-17 07:30N 37°58' E 023°34'0 0.0
2017-Jun-17 07:00N 37°58' E 023°34'1 1.3
2017-Jun-17 06:31N 37°57' E 023°34'1 2.4
2017-Jun-17 06:00N 37°57' E 023°35'0 0.9
2017-Jun-17 05:30N 37°57' E 023°36'0 0.0
2017-Jun-17 05:00N 37°57' E 023°36'0 0.8
2017-Jun-17 04:30N 37°57' E 023°36'2 3.4
2017-Jun-17 04:00N 37°56' E 023°38'1 2.4
2017-Jun-17 03:30N 37°56' E 023°37'1 0.1
2017-Jun-16 10:53N 37°57' E 023°37'0 0.0
2017-Jun-16 10:30N 37°57' E 023°37'1 1.2
2017-Jun-16 10:00N 37°57' E 023°36'1 1.2
2017-Jun-16 09:30N 37°57' E 023°37'0 0.0
2017-Jun-16 09:00N 37°57' E 023°37'0 0.0
2017-Jun-16 08:30N 37°57' E 023°37'0 0.0
2017-Jun-16 08:00N 37°57' E 023°37'0 0.0
2017-Jun-16 07:30N 37°57' E 023°37'0 0.9
2017-Jun-16 07:00N 37°57' E 023°36'0 0.3
2017-Jun-16 06:30N 37°57' E 023°36'1 1.1
2017-Jun-16 06:00N 37°57' E 023°37'0 0.0
2017-Jun-16 05:30N 37°57' E 023°37'0 0.0
2017-Jun-16 05:00N 37°57' E 023°37'0 0.0
2017-Jun-16 04:30N 37°57' E 023°37'0 0.9
2017-Jun-16 04:00N 37°57' E 023°36'0 0.9
2017-Jun-16 03:30N 37°57' E 023°37'0 0.0
2017-Jun-16 03:00N 37°57' E 023°37'0 0.0
2017-Jun-16 02:30N 37°57' E 023°37'0 0.0
2017-Jun-16 02:00N 37°57' E 023°37'0 0.0
2017-Jun-16 01:30N 37°57' E 023°37'0 0.0
2017-Jun-16 01:00N 37°57' E 023°37'0 0.0
2017-Jun-16 00:30N 37°57' E 023°37'0 0.0
2017-Jun-16 00:00N 37°57' E 023°37'0 0.1
2017-Jun-15 23:30N 37°57' E 023°36'1 1.6
2017-Jun-15 23:00N 37°57' E 023°36'0 0.1
2017-Jun-15 22:30N 37°57' E 023°36'0 0.7
2017-Jun-15 22:00N 37°57' E 023°35'0 0.8
2017-Jun-15 21:30N 37°57' E 023°35'1 2.5
2017-Jun-15 21:00N 37°57' E 023°37'0 0.0
2017-Jun-15 20:30N 37°57' E 023°37'0 0.0
2017-Jun-15 20:00N 37°57' E 023°37'0 0.0
2017-Jun-15 19:30N 37°57' E 023°37'0 0.0
2017-Jun-15 19:00N 37°57' E 023°37'0 0.0
2017-Jun-15 18:30N 37°57' E 023°37'0 0.0
2017-Jun-15 18:00N 37°57' E 023°37'0 0.0
2017-Jun-15 17:30N 37°57' E 023°37'0 0.0
2017-Jun-15 17:00N 37°57' E 023°37'0 0.0
2017-Jun-15 16:30N 37°57' E 023°37'0 0.6
2017-Jun-15 16:00N 37°57' E 023°36'0 0.4
2017-Jun-15 15:30N 37°57' E 023°36'1 1.4
2017-Jun-15 15:00N 37°57' E 023°36'1 0.8
2017-Jun-15 14:00N 37°57' E 023°37'0 0.1
2017-Jun-15 13:30N 37°57' E 023°37'0 0.1
2017-Jun-15 13:00N 37°57' E 023°37'0 0.0
2017-Jun-15 12:30N 37°57' E 023°37'0 0.0
2017-Jun-15 12:00N 37°57' E 023°37'0 0.0
2017-Jun-15 11:30N 37°57' E 023°37'0 0.1
2017-Jun-15 11:00N 37°57' E 023°37'0 0.1
2017-Jun-15 10:30N 37°57' E 023°37'0 0.0
2017-Jun-15 10:00N 37°57' E 023°37'1 1.1
2017-Jun-15 09:30N 37°57' E 023°37'0 0.0
2017-Jun-15 09:00N 37°57' E 023°37'0 0.0
2017-Jun-15 08:30N 37°57' E 023°37'1 2.0
2017-Jun-15 08:00N 37°57' E 023°36'0 0.8
2017-Jun-15 07:30N 37°57' E 023°36'0 1.0
2017-Jun-15 07:00N 37°56' E 023°36'1 2.0
2017-Jun-15 06:30N 37°57' E 023°36'1 1.1
2017-Jun-15 06:00N 37°57' E 023°36'0 0.2
2017-Jun-15 05:30N 37°57' E 023°36'0 0.6
2017-Jun-15 05:00N 37°57' E 023°36'0 0.6
2017-Jun-15 04:30N 37°57' E 023°36'0 0.2
2017-Jun-15 04:00N 37°57' E 023°36'1 1.5
2017-Jun-15 03:30N 37°57' E 023°37'0 0.1
2017-Jun-15 03:00N 37°57' E 023°37'0 0.0
2017-Jun-13 16:08N 37°57' E 023°37'0 1.9
2017-Jun-13 16:00N 37°57' E 023°36'4 7.3
2017-Jun-13 15:30N 37°60' E 023°33'2 4.4
2017-Jun-13 15:00N 38°02' E 023°32'0 0.0
2017-Jun-13 14:30N 38°02' E 023°32'0 0.0
2017-Jun-13 13:30N 38°02' E 023°32'0 0.0
2017-Jun-13 13:00N 38°02' E 023°32'0 0.0
2017-Jun-13 12:31N 38°02' E 023°32'0 0.0
2017-Jun-13 12:00N 38°02' E 023°32'0 0.0
2017-Jun-13 11:31N 38°02' E 023°32'0 0.0
2017-Jun-13 11:00N 38°02' E 023°32'2 3.7
2017-Jun-13 10:31N 38°02' E 023°30'0 0.7
2017-Jun-13 10:01N 38°02' E 023°30'0 0.0
2017-Jun-13 09:30N 38°02' E 023°30'0 0.0
2017-Jun-13 09:00N 38°02' E 023°30'0 0.3
2017-Jun-13 08:30N 38°02' E 023°30'0 0.0
2017-Jun-13 08:01N 38°02' E 023°30'0 0.0
2017-Jun-13 07:30N 38°02' E 023°30'0 0.0
2017-Jun-13 07:00N 38°02' E 023°30'0 0.0
2017-Jun-13 06:31N 38°02' E 023°30'2 5.0
2017-Jun-13 06:00N 38°00' E 023°32'4 8.1
2017-Jun-13 05:31N 37°57' E 023°35'1 1.1
2017-Jun-13 05:00N 37°57' E 023°36'0 0.6
2017-Jun-13 04:30N 37°57' E 023°36'0 0.6
2017-Jun-13 04:01N 37°57' E 023°35'1 1.7
2017-Jun-13 03:30N 37°57' E 023°36'0 0.7
2017-Jun-13 03:01N 37°57' E 023°37'  

Dump ship's entire track history